createdAt,value
2023-11-01T00:01:01.393Z,8.94
2023-11-01T00:05:03.181Z,8.80
2023-11-01T00:09:04.819Z,8.67
2023-11-01T00:13:07.755Z,8.64
2023-11-01T00:17:09.351Z,8.60
2023-11-01T00:21:10.952Z,8.55
2023-11-01T00:25:12.564Z,8.70
2023-11-01T00:29:15.756Z,8.69
2023-11-01T00:33:17.482Z,8.78
2023-11-01T00:37:19.325Z,8.78
2023-11-01T00:41:20.986Z,8.76
2023-11-01T00:45:23.975Z,8.89
2023-11-01T00:49:25.549Z,9.00
2023-11-01T00:53:28.210Z,9.08
2023-11-01T00:57:29.843Z,9.23
2023-11-01T01:01:32.806Z,9.31
2023-11-01T01:05:34.486Z,9.40
2023-11-01T01:09:36.111Z,9.57
2023-11-01T01:13:37.686Z,9.52
2023-11-01T01:17:40.744Z,9.70
2023-11-01T01:21:43.516Z,9.73
2023-11-01T01:25:45.111Z,9.68
2023-11-01T01:29:46.707Z,9.83
2023-11-01T01:33:49.723Z,9.67
2023-11-01T01:37:51.368Z,9.65
2023-11-01T01:41:53.036Z,9.64
2023-11-01T01:46:03.664Z,9.66
2023-11-01T01:50:08.065Z,9.62
2023-11-01T01:54:09.820Z,9.61
2023-11-01T01:58:11.858Z,9.80
2023-11-01T02:02:14.294Z,9.61
2023-11-01T02:06:17.263Z,9.56
2023-11-01T02:10:18.842Z,9.53
2023-11-01T02:14:20.481Z,9.57
2023-11-01T02:18:22.112Z,9.68
2023-11-01T02:22:24.986Z,9.65
2023-11-01T02:26:27.943Z,9.61
2023-11-01T02:30:29.580Z,9.60
2023-11-01T02:34:31.162Z,9.78
2023-11-01T02:38:32.888Z,9.71
2023-11-01T02:42:36.132Z,9.78
2023-11-01T02:46:37.695Z,9.76
2023-11-01T02:50:39.419Z,9.75
2023-11-01T02:54:41.006Z,9.73
2023-11-01T02:58:43.907Z,9.92
2023-11-01T03:02:45.664Z,9.94
2023-11-01T03:06:47.222Z,9.90
2023-11-01T03:10:48.778Z,9.81
2023-11-01T03:14:51.857Z,9.65
2023-11-01T03:18:53.506Z,9.63
2023-11-01T03:22:55.061Z,9.65
2023-11-01T03:26:56.751Z,9.71
2023-11-01T03:30:59.683Z,9.79
2023-11-01T03:35:01.263Z,9.90
2023-11-01T03:39:03.052Z,9.87
2023-11-01T03:43:04.622Z,9.89
2023-11-01T03:47:07.787Z,9.99
2023-11-01T03:51:09.340Z,9.89
2023-11-01T03:55:10.914Z,9.79
2023-11-01T03:59:12.572Z,9.81
2023-11-01T04:03:15.659Z,9.71
2023-11-01T04:07:17.851Z,9.74
2023-11-01T04:11:19.593Z,9.87
2023-11-01T04:15:21.193Z,9.86
2023-11-01T04:19:24.389Z,9.76
2023-11-01T04:23:26.031Z,9.73
2023-11-01T04:27:27.651Z,9.59
2023-11-01T04:31:29.239Z,9.43
2023-11-01T04:35:32.195Z,9.35
2023-11-01T04:39:33.759Z,9.22
2023-11-01T04:43:35.410Z,9.28
2023-11-01T04:47:37.606Z,9.36
2023-11-01T04:51:41.005Z,9.61
2023-11-01T04:55:43.835Z,9.71
2023-11-01T04:59:46.478Z,9.78
2023-11-01T05:03:48.063Z,9.79
2023-11-01T05:07:51.052Z,9.82
2023-11-01T05:11:52.883Z,9.95
2023-11-01T05:15:54.695Z,10.00
2023-11-01T05:19:56.256Z,10.04
2023-11-01T05:23:59.149Z,9.97
2023-11-01T05:28:00.774Z,9.95
2023-11-01T05:32:02.315Z,9.91
2023-11-01T05:36:04.915Z,9.93
2023-11-01T05:40:09.387Z,9.91
2023-11-01T05:44:10.953Z,9.93
2023-11-01T05:48:12.556Z,9.89
2023-11-01T05:52:14.156Z,9.94
2023-11-01T05:56:17.152Z,10.01
2023-11-01T06:00:19.766Z,10.15
2023-11-01T06:04:21.436Z,10.14
2023-11-01T06:08:23.041Z,10.24
2023-11-01T06:12:25.946Z,10.18
2023-11-01T06:16:27.583Z,10.18
2023-11-01T06:20:29.207Z,10.09
2023-11-01T06:24:32.208Z,10.00
2023-11-01T06:28:35.130Z,9.92
2023-11-01T06:32:36.810Z,9.91
2023-11-01T06:36:38.462Z,9.92
2023-11-01T06:40:40.020Z,9.82
2023-11-01T06:44:42.921Z,9.70
2023-11-01T06:48:45.209Z,9.57
2023-11-01T06:52:46.922Z,9.58
2023-11-01T06:56:48.560Z,9.57
2023-11-01T07:00:51.502Z,9.62
2023-11-01T07:04:53.164Z,9.61
2023-11-01T07:08:54.987Z,9.69
2023-11-01T07:12:57.347Z,9.84
2023-11-01T07:17:01.207Z,9.94
2023-11-01T07:21:03.014Z,9.86
2023-11-01T07:25:05.781Z,9.79
2023-11-01T07:29:08.172Z,9.72
2023-11-01T07:33:11.418Z,9.83
2023-11-01T07:37:13.016Z,9.95
2023-11-01T07:41:16.729Z,10.21
2023-11-01T07:45:18.329Z,10.45
2023-11-01T07:49:21.327Z,10.69
2023-11-01T07:53:22.930Z,10.81
2023-11-01T07:57:25.013Z,10.95
2023-11-01T08:01:26.613Z,11.08
2023-11-01T08:05:29.716Z,11.26
2023-11-01T08:09:31.348Z,11.27
2023-11-01T08:13:32.915Z,11.33
2023-11-01T08:17:34.615Z,11.43
2023-11-01T08:21:37.557Z,11.44
2023-11-01T08:25:39.149Z,11.40
2023-11-01T08:29:40.765Z,11.50
2023-11-01T08:33:42.436Z,11.56
2023-11-01T08:37:45.637Z,11.63
2023-11-01T08:41:47.285Z,11.63
2023-11-01T08:45:48.955Z,11.71
2023-11-01T08:49:51.035Z,11.76
2023-11-01T08:53:54.813Z,11.91
2023-11-01T08:57:56.492Z,11.96
2023-11-01T09:02:07.426Z,12.07
2023-11-01T09:06:14.987Z,12.26
2023-11-01T09:10:18.560Z,12.36
2023-11-01T09:14:20.291Z,12.52
2023-11-01T09:18:21.986Z,12.59
2023-11-01T09:22:24.338Z,12.47
2023-11-01T09:26:27.373Z,12.43
2023-11-01T09:30:28.939Z,12.46
2023-11-01T09:34:30.537Z,12.50
2023-11-01T09:38:32.144Z,12.46
2023-11-01T09:42:35.477Z,12.58
2023-11-01T09:46:37.256Z,12.77
2023-11-01T09:50:40.962Z,13.04
2023-11-01T09:54:42.535Z,13.33
2023-11-01T09:58:45.937Z,13.43
2023-11-01T10:02:47.998Z,13.57
2023-11-01T10:06:49.605Z,13.73
2023-11-01T10:10:51.493Z,13.75
2023-11-01T10:14:55.130Z,13.82
2023-11-01T10:18:56.812Z,13.83
2023-11-01T10:22:58.987Z,13.68
2023-11-01T10:27:00.684Z,13.74
2023-11-01T10:31:04.587Z,13.87
2023-11-01T10:35:12.725Z,13.84
2023-11-01T10:39:14.491Z,13.86
2023-11-01T10:43:16.658Z,13.91
2023-11-01T10:47:19.886Z,14.01
2023-11-01T10:51:21.886Z,14.09
2023-11-01T10:55:23.496Z,14.49
2023-11-01T10:59:31.438Z,14.96
2023-11-01T11:03:43.067Z,15.09
2023-11-01T11:07:48.250Z,15.07
2023-11-01T11:12:04.710Z,14.99
2023-11-01T11:16:06.590Z,14.98
2023-11-01T11:20:13.940Z,14.82
2023-11-01T11:24:46.951Z,14.75
2023-11-01T11:28:48.521Z,14.71
2023-11-01T11:33:06.638Z,14.81
2023-11-01T11:37:09.950Z,14.92
2023-11-01T11:41:13.010Z,14.87
2023-11-01T11:45:25.323Z,14.89
2023-11-01T11:49:28.958Z,14.98
2023-11-01T11:53:35.704Z,14.98
2023-11-01T11:57:37.569Z,15.07
2023-11-01T12:01:39.625Z,15.15
2023-11-01T12:05:41.253Z,15.04
2023-11-01T12:09:49.403Z,15.15
2023-11-01T12:13:51.014Z,15.14
2023-11-01T12:17:52.622Z,15.09
2023-11-01T12:21:55.808Z,15.23
2023-11-01T12:26:08.410Z,15.21
2023-11-01T12:30:21.251Z,15.20
2023-11-01T12:34:22.893Z,15.55
2023-11-01T12:38:24.484Z,15.82
2023-11-01T12:42:28.777Z,15.60
2023-11-01T12:46:30.439Z,15.38
2023-11-01T12:50:33.610Z,15.13
2023-11-01T12:54:35.602Z,14.99
2023-11-01T12:58:39.633Z,14.99
2023-11-01T13:02:41.871Z,14.87
2023-11-01T13:06:43.589Z,15.42
2023-11-01T13:10:45.158Z,15.32
2023-11-01T13:14:48.077Z,15.20
2023-11-01T13:18:49.737Z,15.10
2023-11-01T13:22:53.361Z,14.86
2023-11-01T13:26:56.089Z,14.95
2023-11-01T13:30:59.147Z,14.73
2023-11-01T13:35:00.962Z,14.73
2023-11-01T13:39:02.754Z,14.72
2023-11-01T13:43:04.333Z,14.60
2023-11-01T13:47:07.340Z,14.52
2023-11-01T13:51:09.163Z,14.51
2023-11-01T13:55:10.778Z,14.56
2023-11-01T13:59:12.381Z,14.56
2023-11-01T14:03:15.503Z,14.40
2023-11-01T14:07:17.239Z,14.27
2023-11-01T14:11:18.927Z,14.16
2023-11-01T14:15:20.538Z,14.03
2023-11-01T14:19:23.435Z,14.00
2023-11-01T14:23:24.972Z,13.89
2023-11-01T14:27:26.512Z,13.74
2023-11-01T14:31:28.133Z,13.65
2023-11-01T14:35:31.046Z,13.71
2023-11-01T14:39:32.605Z,13.57
2023-11-01T14:43:34.171Z,13.49
2023-11-01T14:47:36.029Z,13.44
2023-11-01T14:51:41.675Z,13.35
2023-11-01T14:55:43.267Z,13.30
2023-11-01T14:59:45.376Z,13.10
2023-11-01T15:03:47.179Z,12.93
2023-11-01T15:07:50.249Z,12.69
2023-11-01T15:11:52.050Z,12.47
2023-11-01T15:15:53.694Z,12.25
2023-11-01T15:19:55.265Z,12.32
2023-11-01T15:23:58.461Z,12.27
2023-11-01T15:28:00.095Z,12.10
2023-11-01T15:32:01.673Z,12.05
2023-11-01T15:36:04.816Z,12.08
2023-11-01T15:40:09.313Z,12.06
2023-11-01T15:44:11.146Z,11.98
2023-11-01T15:48:13.143Z,11.98
2023-11-01T15:52:14.798Z,11.93
2023-11-01T15:56:17.727Z,11.97
2023-11-01T16:00:19.353Z,11.98
2023-11-01T16:04:21.160Z,11.95
2023-11-01T16:08:23.613Z,11.92
2023-11-01T16:12:26.554Z,11.89
2023-11-01T16:16:28.138Z,11.80
2023-11-01T16:20:29.995Z,11.67
2023-11-01T16:24:31.653Z,11.64
2023-11-01T16:28:34.570Z,11.59
2023-11-01T16:32:36.155Z,11.51
2023-11-01T16:36:37.732Z,11.50
2023-11-01T16:40:39.351Z,11.68
2023-11-01T16:44:42.487Z,11.69
2023-11-01T16:48:44.411Z,11.72
2023-11-01T16:52:46.023Z,11.70
2023-11-01T16:56:47.839Z,11.66
2023-11-01T17:00:50.771Z,11.63
2023-11-01T17:04:52.311Z,11.64
2023-11-01T17:08:54.074Z,11.59
2023-11-01T17:12:55.661Z,11.57
2023-11-01T17:16:59.132Z,11.55
2023-11-01T17:21:00.709Z,11.60
2023-11-01T17:25:02.322Z,11.56
2023-11-01T17:29:04.180Z,11.45
2023-11-01T17:33:07.143Z,11.27
2023-11-01T17:37:08.746Z,11.10
2023-11-01T17:41:48.478Z,10.97
2023-11-01T17:45:50.081Z,10.76
2023-11-01T17:49:59.626Z,10.70
2023-11-01T17:54:01.422Z,10.73
2023-11-01T17:58:03.077Z,10.75
2023-11-01T18:02:30.548Z,10.73
2023-11-01T18:06:33.596Z,10.71
2023-11-01T18:10:40.304Z,10.81
2023-11-01T18:14:42.890Z,11.02
2023-11-01T18:18:45.652Z,11.03
2023-11-01T18:22:48.594Z,10.97
2023-11-01T18:26:50.184Z,10.86
2023-11-01T18:30:52.471Z,10.78
2023-11-01T18:34:54.110Z,10.70
2023-11-01T18:38:58.962Z,10.60
2023-11-01T18:43:00.784Z,10.64
2023-11-01T18:47:05.185Z,10.50
2023-11-01T18:51:14.197Z,10.50
2023-11-01T18:55:29.212Z,10.43
2023-11-01T18:59:31.485Z,10.33
2023-11-01T19:03:33.231Z,10.37
2023-11-01T19:07:38.375Z,10.36
2023-11-01T19:11:41.353Z,10.60
2023-11-01T19:16:10.757Z,10.57
2023-11-01T19:20:12.321Z,10.62
2023-11-01T19:24:13.890Z,10.76
2023-11-01T19:28:17.729Z,10.80
2023-11-01T19:32:19.451Z,10.81
2023-11-01T19:36:21.254Z,10.73
2023-11-01T19:40:23.051Z,10.71
2023-11-01T19:44:26.145Z,10.64
2023-11-01T19:48:27.957Z,10.56
2023-11-01T19:52:29.592Z,10.55
2023-11-01T19:56:31.346Z,10.62
2023-11-01T20:00:34.363Z,10.59
2023-11-01T20:04:36.947Z,10.58
2023-11-01T20:08:38.533Z,10.66
2023-11-01T20:12:40.239Z,10.75
2023-11-01T20:16:43.179Z,10.70
2023-11-01T20:20:44.771Z,10.68
2023-11-01T20:24:46.327Z,10.52
2023-11-01T20:28:48.204Z,10.43
2023-11-01T20:32:51.556Z,10.35
2023-11-01T20:36:53.169Z,10.31
2023-11-01T20:40:54.805Z,10.33
2023-11-01T20:44:56.365Z,10.51
2023-11-01T20:48:59.395Z,10.38
2023-11-01T20:53:00.947Z,10.37
2023-11-01T20:57:02.584Z,10.40
2023-11-01T21:01:04.559Z,10.29
2023-11-01T21:05:08.322Z,10.32
2023-11-01T21:09:10.055Z,10.32
2023-11-01T21:13:11.664Z,10.39
2023-11-01T21:17:13.311Z,10.41
2023-11-01T21:21:16.635Z,10.41
2023-11-01T21:25:18.266Z,10.46
2023-11-01T21:29:20.204Z,10.48
2023-11-01T21:33:22.068Z,10.50
2023-11-01T21:37:25.915Z,10.49
2023-11-01T21:41:27.571Z,10.72
2023-11-01T21:45:47.186Z,10.73
2023-11-01T21:49:48.819Z,10.89
2023-11-01T21:53:51.743Z,11.06
2023-11-01T21:57:54.215Z,11.05
2023-11-01T22:01:55.857Z,11.16
2023-11-01T22:05:57.599Z,11.13
2023-11-01T22:10:10.549Z,11.15
2023-11-01T22:14:26.910Z,11.14
2023-11-01T22:18:28.501Z,10.92
2023-11-01T22:22:49.928Z,10.84
2023-11-01T22:26:53.342Z,10.72
2023-11-01T22:30:55.019Z,10.65
2023-11-01T22:34:56.661Z,10.60
2023-11-01T22:38:59.720Z,10.49
2023-11-01T22:43:02.709Z,10.40
2023-11-01T22:47:04.738Z,10.25
2023-11-01T22:51:07.137Z,10.14
2023-11-01T22:55:09.155Z,10.20
2023-11-01T22:59:12.065Z,10.18
2023-11-01T23:03:13.814Z,10.23
2023-11-01T23:07:15.445Z,10.18
2023-11-01T23:11:17.012Z,10.21
2023-11-01T23:15:20.092Z,10.22
2023-11-01T23:19:21.697Z,10.21
2023-11-01T23:23:23.332Z,10.20
2023-11-01T23:27:25.119Z,10.16
2023-11-01T23:31:28.482Z,10.18
2023-11-01T23:35:30.605Z,10.16
2023-11-01T23:39:38.006Z,10.09
2023-11-01T23:43:39.562Z,10.10
2023-11-01T23:47:51.275Z,10.23
2023-11-01T23:51:57.522Z,10.25
2023-11-01T23:55:59.070Z,10.36
